Flight Information

DEPARTURE
MOJAVE, CA
Elevation:
2801
Runways:
12/30 - 12503x200 - ASPH-E
4/22 - 4747x60 - ASPH-E
8/26 - 7049x100 - ASPH-G
Ground:
123.9
Tower:
127.6
DESTINATION
,
Elevation:
TPA:
1000 (est.)


6762.8 NM73° True-14° Var58° HDG

Flight Plan:
(click to file on line)

1. Type
2. Aircraft Identification
3. Aircraft Type / Special Equipment
4. True Airspeed
kts
5. Departure Airport
(ICAO code)
6. Arriving Airport
(ICAO code)
7. Cruising Altitude
ft
8. Alternate Airport
(ICAO code)
9. Route of Flight
10. Remarks


00:00:00 Departure ATIS: Destination ATIS:

Clearance Limit:
Route:
Altitude: Expect in minutes
Frequency:
Transponder: (7500 Hijack / 7600 Lost Comms / 7700 Emergency)


KMHV 110300Z AUTO 30024G31KT 10SM CLR 17/M00 A2985 RMK A01
Time: 2021-04-11T03:00:00Z
1618111997
Winds: 300 @ 24 kts
Gusting:31 kts
Visibility: 10.0 sm
Clouds (AGL): CLR
Temperature: 17.0 C
Dew Point: 0.0 C
Pressure: 29.84941 in Hgbr


Notes:

Data extracted from FAA Digital Chart Supplement. Effective: 0901Z Thursday, Feb 25, 2021 to 0901Z Thursday, APR 22, 2021
Current ATIS data is provided courtisy of PilotEdge.